Time;durP1;ratioP1;P1;durP2;ratioP2;P2;SDS_P1;SDS_P2;PMS_P1;PMS_P2;Temp;Humidity;BMP_temperature;BMP_pressure;BME280_temperature;BME280_humidity;BME280_pressure;Samples;Min_cycle;Max_cycle;Signal;HPM_P1;HPM_P2
2022/03/08 00:01:51;;;;;;;8.95;6.68;;;2.90;77.10;;;;;;6126452;23;92387;-72
2022/03/08 00:04:18;;;;;;;8.10;6.10;;;2.90;77.00;;;;;;6126458;23;92390;-72
2022/03/08 00:06:45;;;;;;;9.27;6.10;;;2.90;76.90;;;;;;6098293;23;98429;-72
2022/03/08 00:09:12;;;;;;;7.47;5.20;;;2.90;77.00;;;;;;6124112;23;97931;-67
2022/03/08 00:11:40;;;;;;;8.85;5.05;;;2.90;77.40;;;;;;6124768;23;92383;-72
2022/03/08 00:14:07;;;;;;;8.20;6.57;;;2.90;77.40;;;;;;6124382;23;92523;-68
2022/03/08 00:16:34;;;;;;;8.30;6.25;;;2.90;77.20;;;;;;6099531;23;95789;-68
2022/03/08 00:19:06;;;;;;;8.20;6.95;;;2.80;77.50;;;;;;6125670;23;93448;-72
2022/03/08 00:21:32;;;;;;;8.48;6.30;;;2.80;77.40;;;;;;6126198;22;92349;-72
2022/03/08 00:23:59;;;;;;;10.02;6.65;;;2.80;77.40;;;;;;6099813;23;91673;-68
2022/03/08 00:26:26;;;;;;;9.30;6.63;;;2.80;77.20;;;;;;6125749;23;93028;-68
2022/03/08 00:28:53;;;;;;;11.88;7.07;;;2.80;77.20;;;;;;6099540;23;94359;-68
2022/03/08 00:31:20;;;;;;;10.32;6.53;;;2.80;77.30;;;;;;6124485;22;94786;-68
2022/03/08 00:33:47;;;;;;;7.85;6.57;;;2.80;77.20;;;;;;6124430;23;93872;-68
2022/03/08 00:36:14;;;;;;;10.13;7.35;;;2.70;77.30;;;;;;6099535;23;94087;-72
2022/03/08 00:38:44;;;;;;;8.55;6.82;;;2.80;77.20;;;;;;6125912;23;93018;-72
2022/03/08 00:41:11;;;;;;;12.60;6.53;;;2.80;77.30;;;;;;6124461;23;92586;-68
2022/03/08 00:43:38;;;;;;;9.18;7.10;;;2.70;77.30;;;;;;6124031;23;92731;-68
2022/03/08 00:46:05;;;;;;;10.32;7.13;;;2.70;77.40;;;;;;6099086;23;95825;-72
2022/03/08 00:48:33;;;;;;;11.95;7.35;;;2.70;77.30;;;;;;6124457;23;94498;-68
2022/03/08 00:51:00;;;;;;;11.32;7.30;;;2.70;77.40;;;;;;6125725;22;92749;-68
2022/03/08 00:53:27;;;;;;;8.38;6.25;;;2.70;77.50;;;;;;6125882;22;92400;-68
2022/03/08 00:55:54;;;;;;;10.88;6.93;;;2.70;77.60;;;;;;6122771;23;95578;-72
2022/03/08 00:58:22;;;;;;;10.63;7.38;;;2.70;77.60;;;;;;6124077;23;97898;-72
2022/03/08 01:00:49;;;;;;;9.65;6.70;;;2.60;77.60;;;;;;6124752;23;92865;-72
2022/03/08 01:03:16;;;;;;;10.77;7.70;;;2.60;77.60;;;;;;6124316;23;92485;-72
2022/03/08 01:05:44;;;;;;;11.82;7.22;;;2.60;77.70;;;;;;6124334;23;95786;-68
2022/03/08 01:08:11;;;;;;;8.77;6.80;;;2.60;77.70;;;;;;6124151;23;92904;-72
2022/03/08 01:10:38;;;;;;;11.65;8.05;;;2.50;77.80;;;;;;6124172;23;92513;-68
2022/03/08 01:13:05;;;;;;;9.93;7.65;;;2.50;77.90;;;;;;6124385;23;91710;-68
2022/03/08 01:15:32;;;;;;;11.07;7.32;;;2.50;78.00;;;;;;6124642;23;93030;-72
2022/03/08 01:18:01;;;;;;;12.20;7.93;;;2.50;78.20;;;;;;6123959;23;95675;-72
2022/03/08 01:20:28;;;;;;;12.95;8.38;;;2.40;78.20;;;;;;6123341;23;94972;-72
2022/03/08 01:22:55;;;;;;;11.13;7.72;;;2.50;78.20;;;;;;6124228;23;92529;-72
2022/03/08 01:25:22;;;;;;;9.95;6.60;;;2.40;78.20;;;;;;6125569;23;93194;-68
2022/03/08 01:27:53;;;;;;;10.82;7.32;;;2.40;78.20;;;;;;6125889;22;92396;-72
2022/03/08 01:30:22;;;;;;;9.95;7.00;;;2.40;78.50;;;;;;6124405;23;92457;-72
2022/03/08 01:32:49;;;;;;;10.48;8.15;;;2.40;78.50;;;;;;6124933;23;92468;-72
2022/03/08 01:35:18;;;;;;;10.60;7.50;;;2.30;78.60;;;;;;6125180;23;93254;-67
2022/03/08 01:37:45;;;;;;;10.07;7.55;;;2.30;78.80;;;;;;6126058;22;92995;-72
2022/03/08 01:40:15;;;;;;;10.38;7.38;;;2.30;78.80;;;;;;6124165;23;92475;-72
2022/03/08 01:42:46;;;;;;;11.20;7.55;;;2.30;79.10;;;;;;6125521;22;92574;-72
2022/03/08 01:45:15;;;;;;;11.50;7.32;;;2.30;79.00;;;;;;6122583;23;98142;-72
2022/03/08 01:47:43;;;;;;;13.30;7.65;;;2.30;79.10;;;;;;6124069;23;97446;-72
2022/03/08 01:50:12;;;;;;;10.85;7.57;;;2.30;79.30;;;;;;6125589;22;92397;-68
2022/03/08 01:52:40;;;;;;;11.55;8.02;;;2.30;79.40;;;;;;6124042;23;92583;-72
2022/03/08 01:55:09;;;;;;;12.68;7.13;;;2.30;79.30;;;;;;6125137;22;93149;-68
2022/03/08 01:57:36;;;;;;;11.73;7.72;;;2.30;79.30;;;;;;6123688;23;109466;-70
2022/03/08 02:00:06;;;;;;;12.15;8.68;;;2.30;79.40;;;;;;6124162;23;92407;-68
2022/03/08 02:02:39;;;;;;;12.85;8.60;;;2.30;79.50;;;;;;6126682;22;92131;-72
2022/03/08 02:05:06;;;;;;;12.35;7.88;;;2.30;79.40;;;;;;6125392;22;93155;-72
2022/03/08 02:07:34;;;;;;;13.20;8.43;;;2.30;79.60;;;;;;6124451;23;93024;-72
2022/03/08 02:10:02;;;;;;;12.50;7.82;;;2.30;79.70;;;;;;6124520;22;94761;-68
2022/03/08 02:12:29;;;;;;;13.30;8.20;;;2.30;79.70;;;;;;6125750;22;93404;-68
2022/03/08 02:14:55;;;;;;;13.32;7.70;;;2.30;79.70;;;;;;6125271;22;93150;-68
2022/03/08 02:17:22;;;;;;;14.50;7.47;;;2.30;79.80;;;;;;6123846;23;92876;-72
2022/03/08 02:19:49;;;;;;;13.52;8.82;;;2.30;79.90;;;;;;6124483;23;92374;-68
2022/03/08 02:22:16;;;;;;;13.10;7.45;;;2.30;79.90;;;;;;6124106;23;92461;-72
2022/03/08 02:24:43;;;;;;;10.95;7.65;;;2.20;79.70;;;;;;6099184;23;95667;-72
2022/03/08 02:27:11;;;;;;;11.38;8.00;;;2.20;79.70;;;;;;6124860;23;92982;-72
2022/03/08 02:29:38;;;;;;;13.85;7.50;;;2.20;79.90;;;;;;6123859;23;101012;-68
2022/03/08 02:32:06;;;;;;;16.40;9.02;;;2.20;79.90;;;;;;6123845;23;92453;-72
2022/03/08 02:34:32;;;;;;;12.15;8.20;;;2.20;79.90;;;;;;6122001;23;98202;-68
2022/03/08 02:37:04;;;;;;;12.60;7.68;;;2.20;79.90;;;;;;6125376;23;95277;-68
2022/03/08 02:39:32;;;;;;;12.43;8.07;;;2.20;79.80;;;;;;6124282;23;92472;-72
2022/03/08 02:42:00;;;;;;;11.52;7.72;;;2.20;79.80;;;;;;6125566;23;92436;-68
2022/03/08 02:44:27;;;;;;;13.70;8.00;;;2.20;79.80;;;;;;6124975;22;92974;-68
2022/03/08 02:46:54;;;;;;;10.95;8.07;;;2.10;79.80;;;;;;6123732;23;95685;-72
2022/03/08 02:49:22;;;;;;;12.88;8.68;;;2.10;79.90;;;;;;6098669;23;92489;-68
2022/03/08 02:51:49;;;;;;;13.20;9.10;;;2.10;79.80;;;;;;6125909;22;91963;-68
2022/03/08 02:54:15;;;;;;;11.70;8.45;;;2.10;79.90;;;;;;6121719;23;99473;-68
2022/03/08 02:56:42;;;;;;;14.55;8.73;;;2.10;80.00;;;;;;6125150;22;92919;-72
2022/03/08 02:59:09;;;;;;;15.75;8.93;;;2.10;80.10;;;;;;6123801;22;95412;-68
2022/03/08 03:01:36;;;;;;;13.25;8.57;;;2.10;80.20;;;;;;6125686;22;92835;-68
2022/03/08 03:04:03;;;;;;;15.38;9.48;;;2.10;80.30;;;;;;6125162;23;93168;-68
2022/03/08 03:06:31;;;;;;;12.63;8.27;;;2.10;80.50;;;;;;6123475;23;95517;-72
2022/03/08 03:08:58;;;;;;;10.13;7.40;;;2.10;80.80;;;;;;6125180;23;92513;-68
2022/03/08 03:11:25;;;;;;;13.93;9.10;;;2.00;80.90;;;;;;6126126;22;92436;-72
2022/03/08 03:13:52;;;;;;;14.50;8.38;;;2.00;80.90;;;;;;6126415;22;93274;-72
2022/03/08 03:16:19;;;;;;;12.80;8.50;;;2.00;81.00;;;;;;6100850;23;93144;-72
2022/03/08 03:18:46;;;;;;;14.32;9.10;;;2.00;81.00;;;;;;6125476;23;92272;-72
2022/03/08 03:21:13;;;;;;;12.25;9.30;;;2.00;81.00;;;;;;6126486;22;101839;-72
2022/03/08 03:23:40;;;;;;;15.13;9.57;;;2.00;81.10;;;;;;6125039;22;95583;-72
2022/03/08 03:26:07;;;;;;;12.93;9.05;;;2.00;81.30;;;;;;6124896;23;95311;-72
2022/03/08 03:28:34;;;;;;;13.15;9.25;;;2.00;81.20;;;;;;6124663;23;92494;-68
2022/03/08 03:31:01;;;;;;;12.88;8.90;;;2.00;81.10;;;;;;6075905;23;92552;-72
2022/03/08 03:33:28;;;;;;;15.95;8.65;;;2.00;81.20;;;;;;6124210;23;92755;-68
2022/03/08 03:35:55;;;;;;;15.27;8.90;;;1.90;81.30;;;;;;6124388;23;95471;-68
2022/03/08 03:38:22;;;;;;;14.02;9.15;;;2.00;81.40;;;;;;6126530;22;92802;-72
2022/03/08 03:40:49;;;;;;;16.33;9.32;;;1.90;81.30;;;;;;6125538;23;91687;-67
2022/03/08 03:43:16;;;;;;;13.85;8.93;;;1.90;81.40;;;;;;6100259;23;94369;-72
2022/03/08 03:45:43;;;;;;;15.38;9.55;;;1.90;81.50;;;;;;6124507;23;92881;-68
2022/03/08 03:48:10;;;;;;;14.65;9.88;;;1.90;81.40;;;;;;6124863;22;95157;-72
2022/03/08 03:50:37;;;;;;;15.02;9.55;;;1.90;81.40;;;;;;6126117;22;92385;-68
2022/03/08 03:53:04;;;;;;;14.02;9.10;;;1.80;81.50;;;;;;6125928;22;92297;-72
2022/03/08 03:55:31;;;;;;;14.88;8.95;;;1.80;81.50;;;;;;6124885;23;92985;-72
2022/03/08 03:57:58;;;;;;;15.13;10.30;;;1.80;81.60;;;;;;6126031;22;97940;-72
2022/03/08 04:00:26;;;;;;;15.93;9.45;;;1.80;81.60;;;;;;6123995;23;92552;-72
2022/03/08 04:02:53;;;;;;;13.88;9.95;;;1.80;81.70;;;;;;6126113;22;93168;-72
2022/03/08 04:05:21;;;;;;;18.35;11.00;;;1.70;81.70;;;;;;6124566;23;92856;-72
2022/03/08 04:07:48;;;;;;;16.92;9.48;;;1.70;81.70;;;;;;6123785;23;92324;-68
2022/03/08 04:10:15;;;;;;;14.80;10.05;;;1.70;81.70;;;;;;6125971;22;92377;-68
2022/03/08 04:12:43;;;;;;;16.30;9.50;;;1.70;81.80;;;;;;6121381;23;101129;-68
2022/03/08 04:15:10;;;;;;;16.90;9.50;;;1.70;81.90;;;;;;6125912;22;104149;-72
2022/03/08 04:17:37;;;;;;;15.63;10.48;;;1.70;81.90;;;;;;6125748;22;92391;-68
2022/03/08 04:20:06;;;;;;;18.60;10.18;;;1.60;82.10;;;;;;6125152;23;92410;-72
2022/03/08 04:22:33;;;;;;;14.57;10.20;;;1.60;82.20;;;;;;6124994;23;93196;-71
2022/03/08 04:25:00;;;;;;;17.83;10.25;;;1.60;82.20;;;;;;6125673;22;92999;-72
2022/03/08 04:27:28;;;;;;;15.30;9.73;;;1.60;82.30;;;;;;6123876;23;92432;-72
2022/03/08 04:29:55;;;;;;;18.00;11.13;;;1.60;82.40;;;;;;6126717;22;91695;-72
2022/03/08 04:32:22;;;;;;;19.10;10.50;;;1.50;82.50;;;;;;6125225;22;93261;-72
2022/03/08 04:34:49;;;;;;;17.63;11.35;;;1.50;82.50;;;;;;6123611;23;95476;-72
2022/03/08 04:37:17;;;;;;;17.48;10.73;;;1.50;82.60;;;;;;6124168;22;95132;-68
2022/03/08 04:39:44;;;;;;;17.15;10.35;;;1.50;82.70;;;;;;6123303;23;92771;-72
2022/03/08 04:42:11;;;;;;;16.58;10.13;;;1.50;82.70;;;;;;6123793;23;95638;-72
2022/03/08 04:44:39;;;;;;;17.95;11.15;;;1.50;82.80;;;;;;6098797;23;94518;-67
2022/03/08 04:47:06;;;;;;;16.73;10.90;;;1.50;83.00;;;;;;6099019;23;92416;-68
2022/03/08 04:49:33;;;;;;;17.70;11.63;;;1.50;83.00;;;;;;6124850;22;92390;-68
2022/03/08 04:52:00;;;;;;;16.42;11.13;;;1.40;83.10;;;;;;6123253;23;95613;-71
2022/03/08 04:54:27;;;;;;;19.45;10.68;;;1.40;83.20;;;;;;6124037;23;94621;-72
2022/03/08 04:56:54;;;;;;;20.08;10.80;;;1.40;83.20;;;;;;6125559;22;92388;-71
2022/03/08 04:59:21;;;;;;;18.00;11.27;;;1.40;83.30;;;;;;6123702;23;92427;-72
2022/03/08 05:01:49;;;;;;;16.70;11.25;;;1.40;83.40;;;;;;6123771;22;95006;-72
2022/03/08 05:04:16;;;;;;;18.60;12.10;;;1.40;83.50;;;;;;6125083;23;95348;-72
2022/03/08 05:06:43;;;;;;;19.15;12.05;;;1.40;83.50;;;;;;6125275;22;92391;-72
2022/03/08 05:09:10;;;;;;;20.35;11.57;;;1.30;83.60;;;;;;6123671;23;92466;-68
2022/03/08 05:11:37;;;;;;;18.77;11.32;;;1.30;83.70;;;;;;6123382;23;93210;-68
2022/03/08 05:14:05;;;;;;;18.65;11.20;;;1.30;83.80;;;;;;6123593;23;95330;-67
2022/03/08 05:16:32;;;;;;;18.80;12.63;;;1.30;83.90;;;;;;6123305;23;92398;-67
2022/03/08 05:18:59;;;;;;;20.73;12.20;;;1.30;83.90;;;;;;6125280;22;91680;-67
2022/03/08 05:21:26;;;;;;;19.42;11.75;;;1.30;83.90;;;;;;6124732;22;93237;-67
2022/03/08 05:23:53;;;;;;;18.63;12.27;;;1.30;83.90;;;;;;6123973;22;108847;-68
2022/03/08 05:26:20;;;;;;;18.55;11.65;;;1.30;84.20;;;;;;6097273;23;94902;-68
2022/03/08 05:28:47;;;;;;;17.48;11.65;;;1.30;84.20;;;;;;6125109;22;92920;-71
2022/03/08 05:31:14;;;;;;;21.25;12.98;;;1.30;84.30;;;;;;6097813;23;95873;-68
2022/03/08 05:33:41;;;;;;;21.73;12.68;;;1.30;84.40;;;;;;6123504;23;92702;-67
2022/03/08 05:36:08;;;;;;;18.23;11.95;;;1.30;84.40;;;;;;6123533;23;92386;-67
2022/03/08 05:38:35;;;;;;;18.75;11.50;;;1.30;84.50;;;;;;6123423;23;93102;-67
2022/03/08 05:41:02;;;;;;;17.85;12.38;;;1.30;84.40;;;;;;6125357;22;92431;-72
2022/03/08 05:43:29;;;;;;;19.02;12.38;;;1.30;84.40;;;;;;6125573;22;92829;-71
2022/03/08 05:45:56;;;;;;;21.75;12.05;;;1.30;84.40;;;;;;6123264;23;102214;-71
2022/03/08 05:48:23;;;;;;;19.10;12.45;;;1.30;84.50;;;;;;6125230;22;92801;-68
2022/03/08 05:50:50;;;;;;;20.92;13.07;;;1.30;84.40;;;;;;6121308;23;95480;-68
2022/03/08 05:53:17;;;;;;;22.08;12.20;;;1.30;84.50;;;;;;6097504;23;95386;-68
2022/03/08 05:55:44;;;;;;;20.80;13.23;;;1.30;84.40;;;;;;6124576;22;92441;-68
2022/03/08 05:58:11;;;;;;;21.08;13.45;;;1.30;84.50;;;;;;6124917;22;92792;-68
2022/03/08 06:00:38;;;;;;;23.40;13.10;;;1.30;84.50;;;;;;6122837;23;93215;-67
2022/03/08 06:03:05;;;;;;;20.83;12.05;;;1.30;84.50;;;;;;6098062;23;95528;-67
2022/03/08 06:05:33;;;;;;;22.63;12.77;;;1.30;84.50;;;;;;6124510;22;92395;-71
2022/03/08 06:08:00;;;;;;;18.45;12.45;;;1.30;84.50;;;;;;6125629;22;91674;-71
2022/03/08 06:10:26;;;;;;;22.63;12.25;;;1.30;84.50;;;;;;6123406;23;95633;-71
2022/03/08 06:12:53;;;;;;;19.13;11.85;;;1.30;84.50;;;;;;6122935;23;95844;-71
2022/03/08 06:15:20;;;;;;;20.10;12.57;;;1.30;84.60;;;;;;6121980;23;94879;-71
2022/03/08 06:17:47;;;;;;;19.50;11.75;;;1.30;84.60;;;;;;6124737;23;98884;-71
2022/03/08 06:20:14;;;;;;;19.67;12.75;;;1.30;84.60;;;;;;6123352;23;95945;-71
2022/03/08 06:22:41;;;;;;;21.73;13.95;;;1.30;84.40;;;;;;6124719;22;93076;-71
2022/03/08 06:25:09;;;;;;;19.65;15.38;;;1.30;84.50;;;;;;6098805;23;92420;-72
2022/03/08 06:27:36;;;;;;;19.77;16.33;;;1.50;84.70;;;;;;6124975;22;92380;-72
2022/03/08 06:30:04;;;;;;;16.65;14.20;;;1.70;84.70;;;;;;6123247;23;92418;-72
2022/03/08 06:32:31;;;;;;;18.20;12.50;;;2.00;84.10;;;;;;6125444;22;93575;-72
2022/03/08 06:34:58;;;;;;;17.45;11.88;;;2.30;83.30;;;;;;6124825;23;92407;-72
2022/03/08 06:37:26;;;;;;;18.15;12.60;;;2.60;82.30;;;;;;6098920;23;92353;-72
2022/03/08 06:39:53;;;;;;;15.30;11.10;;;2.70;81.20;;;;;;6121741;23;95472;-72
2022/03/08 06:42:20;;;;;;;17.38;11.80;;;2.90;80.60;;;;;;6122636;23;96793;-72
2022/03/08 06:44:47;;;;;;;18.23;11.82;;;3.00;79.60;;;;;;6123024;23;92311;-72
2022/03/08 06:47:14;;;;;;;14.68;9.85;;;3.10;79.10;;;;;;6125252;22;92378;-72
2022/03/08 06:49:42;;;;;;;18.83;11.38;;;3.20;79.00;;;;;;6124760;23;106987;-72
2022/03/08 06:52:10;;;;;;;16.83;11.63;;;3.30;78.20;;;;;;6122733;23;95860;-68
2022/03/08 06:54:38;;;;;;;16.52;10.82;;;3.40;77.80;;;;;;6123925;23;92374;-72
2022/03/08 06:57:05;;;;;;;14.77;10.85;;;3.50;77.90;;;;;;6124847;22;96945;-72
2022/03/08 06:59:32;;;;;;;21.77;11.98;;;3.60;77.20;;;;;;6122665;23;95618;-72
2022/03/08 07:01:59;;;;;;;16.85;11.63;;;3.70;76.50;;;;;;6123075;23;95517;-73
2022/03/08 07:04:26;;;;;;;15.70;12.98;;;3.70;76.50;;;;;;6121686;23;95319;-72
2022/03/08 07:06:54;;;;;;;18.55;13.27;;;3.80;76.60;;;;;;6098525;23;92396;-72
2022/03/08 07:09:22;;;;;;;14.85;11.02;;;3.90;76.60;;;;;;6124658;22;93205;-73
2022/03/08 07:11:49;;;;;;;14.93;10.35;;;4.20;75.80;;;;;;6124035;22;93112;-68
2022/03/08 07:14:17;;;;;;;17.25;11.60;;;4.40;75.00;;;;;;6122587;23;92377;-68
2022/03/08 07:16:46;;;;;;;17.65;12.90;;;4.60;74.40;;;;;;6124590;22;92399;-72
2022/03/08 07:19:13;;;;;;;16.55;14.48;;;4.80;73.70;;;;;;6124028;23;101205;-73
2022/03/08 07:21:41;;;;;;;15.60;13.45;;;4.90;72.90;;;;;;6125060;22;92783;-72
2022/03/08 07:24:09;;;;;;;14.77;11.60;;;5.00;72.40;;;;;;6122624;23;92354;-72
2022/03/08 07:26:36;;;;;;;16.20;11.95;;;5.20;72.30;;;;;;6123076;23;92465;-72
2022/03/08 07:29:03;;;;;;;16.00;10.30;;;5.40;72.10;;;;;;6120879;23;95581;-68
2022/03/08 07:31:32;;;;;;;17.73;11.48;;;5.70;71.60;;;;;;6123728;22;95318;-68
2022/03/08 07:33:59;;;;;;;16.15;10.13;;;5.80;70.00;;;;;;6123526;23;92409;-68
2022/03/08 07:36:27;;;;;;;14.07;10.45;;;5.80;69.70;;;;;;6122699;23;92851;-72
2022/03/08 07:38:54;;;;;;;18.92;11.68;;;5.90;69.30;;;;;;6123961;22;93082;-72
2022/03/08 07:41:21;;;;;;;14.90;10.95;;;5.90;68.80;;;;;;6122972;23;105893;-72
2022/03/08 07:43:48;;;;;;;16.58;11.55;;;5.90;69.00;;;;;;6122101;23;92487;-68
2022/03/08 07:46:15;;;;;;;15.88;11.43;;;5.80;69.30;;;;;;6098128;23;91832;-73
2022/03/08 07:48:42;;;;;;;14.68;11.45;;;5.80;69.20;;;;;;6122384;23;96182;-73
2022/03/08 07:51:15;;;;;;;17.70;12.48;;;5.90;69.50;;;;;;6098874;23;94302;-73
2022/03/08 07:53:42;;;;;;;14.50;10.60;;;5.90;69.40;;;;;;6122471;22;95314;-73
2022/03/08 07:56:09;;;;;;;14.57;11.60;;;6.00;69.40;;;;;;6125481;22;92489;-73
2022/03/08 07:58:38;;;;;;;13.85;11.68;;;6.10;69.90;;;;;;6123869;23;93325;-73
2022/03/08 08:01:05;;;;;;;16.17;13.32;;;6.30;68.90;;;;;;6125292;23;92953;-73
2022/03/08 08:03:32;;;;;;;13.65;11.88;;;6.50;69.30;;;;;;6124179;23;92479;-73
2022/03/08 08:06:02;;;;;;;14.07;12.52;;;6.80;68.30;;;;;;6123435;23;98734;-73
2022/03/08 08:08:29;;;;;;;19.63;17.92;;;7.20;67.40;;;;;;6125570;23;93193;-73
2022/03/08 08:10:56;;;;;;;22.27;20.40;;;7.50;66.50;;;;;;6125608;22;92916;-68
2022/03/08 08:13:23;;;;;;;20.30;18.60;;;8.00;65.60;;;;;;6125751;22;92861;-73
2022/03/08 08:15:50;;;;;;;20.33;18.83;;;8.40;64.20;;;;;;6125738;22;92402;-73
2022/03/08 08:18:18;;;;;;;25.55;23.90;;;8.90;62.70;;;;;;6123781;22;95649;-73
2022/03/08 08:20:45;;;;;;;32.85;30.95;;;9.20;61.30;;;;;;6074650;23;98159;-73
2022/03/08 08:23:12;;;;;;;21.40;20.00;;;9.50;60.00;;;;;;6123427;23;92462;-69
2022/03/08 08:25:39;;;;;;;19.45;18.02;;;9.80;58.80;;;;;;6098312;23;99558;-69
2022/03/08 08:28:06;;;;;;;17.73;16.13;;;10.10;58.50;;;;;;6125080;23;93175;-69
2022/03/08 08:30:34;;;;;;;12.70;10.13;;;10.00;57.80;;;;;;6123555;23;93007;-73
2022/03/08 08:33:01;;;;;;;14.93;10.20;;;10.10;58.00;;;;;;6099396;23;92463;-73
2022/03/08 08:35:28;;;;;;;11.20;10.10;;;10.10;57.40;;;;;;6124196;23;91796;-73
2022/03/08 08:37:55;;;;;;;12.68;9.13;;;10.10;57.10;;;;;;6123939;23;93260;-73
2022/03/08 08:40:22;;;;;;;10.10;8.57;;;9.80;57.60;;;;;;6125687;22;92955;-69
2022/03/08 08:42:49;;;;;;;11.77;9.68;;;9.50;58.20;;;;;;6124534;22;94966;-69
2022/03/08 08:45:16;;;;;;;11.38;9.07;;;9.00;59.00;;;;;;6123976;23;92469;-69
2022/03/08 08:47:43;;;;;;;11.95;9.77;;;8.70;59.50;;;;;;6125629;22;93280;-69
2022/03/08 08:50:10;;;;;;;12.25;9.23;;;8.40;60.10;;;;;;6123498;23;95432;-69
2022/03/08 08:52:37;;;;;;;13.27;9.85;;;8.20;60.30;;;;;;6125836;22;92343;-69
2022/03/08 08:55:05;;;;;;;12.52;10.13;;;8.00;61.30;;;;;;6124484;23;92449;-73
2022/03/08 08:57:36;;;;;;;12.00;9.70;;;7.80;61.60;;;;;;6100047;23;95654;-73
2022/03/08 09:00:05;;;;;;;11.93;9.63;;;7.60;63.10;;;;;;6126218;22;92950;-73
2022/03/08 09:02:32;;;;;;;11.82;9.52;;;7.50;64.10;;;;;;6075992;23;92471;-73
2022/03/08 09:04:59;;;;;;;13.63;9.70;;;7.40;63.20;;;;;;6124187;23;92847;-69
2022/03/08 09:07:26;;;;;;;11.00;8.68;;;7.30;63.90;;;;;;6122387;23;95541;-69
2022/03/08 09:09:53;;;;;;;14.00;9.45;;;7.30;64.20;;;;;;6123903;23;95458;-69
2022/03/08 09:12:20;;;;;;;12.27;9.18;;;7.30;65.50;;;;;;6125336;22;92423;-69
2022/03/08 09:14:47;;;;;;;11.10;8.55;;;7.30;64.50;;;;;;6125963;23;92782;-73
2022/03/08 09:17:14;;;;;;;10.48;9.38;;;7.40;64.60;;;;;;6125623;22;93170;-69
2022/03/08 09:19:41;;;;;;;11.57;10.02;;;7.40;64.40;;;;;;6123793;23;93088;-69
2022/03/08 09:22:07;;;;;;;13.27;9.18;;;7.50;65.30;;;;;;6124091;23;92441;-73
2022/03/08 09:24:35;;;;;;;13.10;9.07;;;7.50;65.30;;;;;;6125101;23;93445;-73
2022/03/08 09:27:03;;;;;;;10.95;8.75;;;7.50;65.20;;;;;;6125865;22;93280;-69
2022/03/08 09:29:30;;;;;;;9.90;8.27;;;7.60;64.10;;;;;;6125536;22;93160;-69
2022/03/08 09:31:57;;;;;;;10.18;7.90;;;7.70;64.50;;;;;;6122727;23;94786;-69
2022/03/08 09:34:24;;;;;;;8.55;7.40;;;7.80;64.60;;;;;;6125636;22;92395;-73
2022/03/08 09:36:51;;;;;;;9.73;7.68;;;7.80;62.90;;;;;;6124205;23;94206;-73
2022/03/08 09:39:18;;;;;;;10.85;7.70;;;7.90;61.90;;;;;;6123861;23;98919;-73
2022/03/08 09:41:45;;;;;;;8.45;7.28;;;8.00;63.30;;;;;;6124810;23;92409;-69
2022/03/08 09:44:13;;;;;;;10.02;8.38;;;8.10;62.00;;;;;;6125293;22;92395;-69
2022/03/08 09:46:41;;;;;;;8.63;6.72;;;8.10;61.10;;;;;;6123561;23;94921;-69
2022/03/08 09:49:08;;;;;;;9.05;8.15;;;8.00;61.10;;;;;;6125562;22;108589;-73
2022/03/08 09:51:38;;;;;;;10.13;8.15;;;8.20;60.70;;;;;;6126327;22;92386;-73
2022/03/08 09:54:05;;;;;;;8.82;7.45;;;8.20;61.00;;;;;;6123725;23;92444;-72
2022/03/08 09:56:33;;;;;;;10.38;7.90;;;8.20;61.10;;;;;;6098235;23;98300;-73
2022/03/08 09:59:00;;;;;;;9.60;7.97;;;8.30;62.10;;;;;;6125916;22;95496;-73
2022/03/08 10:01:27;;;;;;;15.70;8.77;;;8.40;61.80;;;;;;6124167;23;92352;-73
2022/03/08 10:03:59;;;;;;;11.63;7.72;;;8.50;61.30;;;;;;6125957;22;92450;-73
2022/03/08 10:06:47;;;;;;;8.30;6.95;;;8.60;61.40;;;;;;6126089;23;92375;-73
2022/03/08 10:09:17;;;;;;;9.05;7.55;;;8.70;60.20;;;;;;6125469;23;93022;-69
2022/03/08 10:11:44;;;;;;;9.13;7.05;;;8.70;58.80;;;;;;6125345;22;92433;-69
2022/03/08 10:14:38;;;;;;;8.25;7.10;;;8.80;58.10;;;;;;6125783;22;91581;-69
2022/03/08 10:17:07;;;;;;;8.45;7.03;;;8.90;58.70;;;;;;6124755;22;92548;-69
2022/03/08 10:19:47;;;;;;;7.65;6.13;;;9.00;59.10;;;;;;6098831;23;94285;-68
2022/03/08 10:22:26;;;;;;;6.65;5.57;;;9.20;58.10;;;;;;6122096;23;94783;-69
2022/03/08 10:25:18;;;;;;;7.35;6.28;;;9.40;57.40;;;;;;6125391;22;92458;-69
2022/03/08 10:27:54;;;;;;;9.40;6.07;;;9.40;56.40;;;;;;6123540;23;95982;-69
2022/03/08 10:30:27;;;;;;;7.43;5.93;;;9.50;56.00;;;;;;6123068;23;95525;-69
2022/03/08 10:33:03;;;;;;;6.53;5.07;;;9.60;56.90;;;;;;6124526;23;92463;-73
2022/03/08 10:35:33;;;;;;;6.15;5.07;;;9.70;58.40;;;;;;6125656;23;92430;-73
2022/03/08 10:38:05;;;;;;;7.97;6.07;;;9.80;55.50;;;;;;6125729;23;94182;-73
2022/03/08 10:40:35;;;;;;;6.72;5.85;;;9.90;54.70;;;;;;6125248;23;92964;-69
2022/03/08 10:43:13;;;;;;;7.78;6.45;;;10.00;52.50;;;;;;6100014;23;92448;-69
2022/03/08 10:45:48;;;;;;;6.10;5.43;;;10.00;52.20;;;;;;6125204;22;92748;-69
2022/03/08 10:48:18;;;;;;;6.40;5.50;;;9.90;51.30;;;;;;6121604;23;96802;-69
2022/03/08 10:50:49;;;;;;;6.47;5.78;;;9.90;53.90;;;;;;6124908;22;95297;-69
2022/03/08 10:53:17;;;;;;;6.78;5.43;;;9.90;51.00;;;;;;6125238;22;92391;-69
2022/03/08 10:55:49;;;;;;;5.35;4.78;;;9.90;52.00;;;;;;6124399;23;107688;-71
2022/03/08 10:58:17;;;;;;;5.40;4.53;;;10.10;53.60;;;;;;6124728;22;93343;-70
2022/03/08 11:00:53;;;;;;;6.40;5.78;;;10.00;51.70;;;;;;6124759;23;92912;-69
2022/03/08 11:03:24;;;;;;;4.72;4.13;;;10.20;51.70;;;;;;6124750;23;92333;-70
2022/03/08 11:05:56;;;;;;;5.28;4.78;;;10.10;50.20;;;;;;6124162;23;91719;-70
2022/03/08 11:08:28;;;;;;;5.28;4.78;;;10.30;51.80;;;;;;6124567;22;93558;-70
2022/03/08 11:10:55;;;;;;;8.70;4.53;;;10.40;51.80;;;;;;6123319;23;92948;-70
2022/03/08 11:13:22;;;;;;;7.32;4.78;;;10.50;50.80;;;;;;6072984;23;94836;-73
2022/03/08 11:15:49;;;;;;;6.28;5.15;;;10.50;51.90;;;;;;6099164;23;92544;-74
2022/03/08 11:18:17;;;;;;;5.35;4.70;;;10.50;50.10;;;;;;6098513;23;95841;-74
2022/03/08 11:20:46;;;;;;;4.90;4.03;;;10.70;52.00;;;;;;6122792;23;95571;-70
2022/03/08 11:23:14;;;;;;;4.25;3.65;;;10.70;48.10;;;;;;6098685;23;92424;-73
2022/03/08 11:25:45;;;;;;;6.90;4.25;;;10.60;48.40;;;;;;6125230;22;92366;-74
2022/03/08 11:28:16;;;;;;;4.60;4.20;;;10.70;49.00;;;;;;6124739;23;93343;-69
2022/03/08 11:30:48;;;;;;;4.35;3.80;;;10.60;48.40;;;;;;6124840;23;93084;-69
2022/03/08 11:33:42;;;;;;;6.10;4.60;;;10.60;48.70;;;;;;6126348;23;92781;-75
2022/03/08 11:36:41;;;;;;;7.07;4.22;;;10.40;48.00;;;;;;6126601;22;92407;-74
2022/03/08 11:39:14;;;;;;;6.25;5.15;;;10.40;48.20;;;;;;6098382;23;98029;-74
2022/03/08 11:41:43;;;;;;;4.88;3.88;;;10.50;48.50;;;;;;6125836;22;95172;-73
2022/03/08 11:44:34;;;;;;;4.40;4.00;;;10.40;48.70;;;;;;6100442;23;92445;-74
2022/03/08 11:47:04;;;;;;;10.82;4.40;;;10.50;50.00;;;;;;6126411;22;92378;-74
2022/03/08 11:49:45;;;;;;;4.80;4.28;;;10.60;50.40;;;;;;6124016;23;92454;-69
2022/03/08 11:52:16;;;;;;;5.20;4.07;;;10.70;47.90;;;;;;6124142;23;94771;-68
2022/03/08 11:55:03;;;;;;;5.75;5.07;;;10.60;47.90;;;;;;6123761;23;92469;-68
2022/03/08 11:57:49;;;;;;;5.13;4.65;;;10.70;47.60;;;;;;6126228;23;91687;-69
2022/03/08 12:00:28;;;;;;;4.88;4.20;;;10.60;47.80;;;;;;6124145;23;95888;-73
2022/03/08 12:02:58;;;;;;;4.97;4.00;;;10.60;48.40;;;;;;6126544;22;93073;-74
2022/03/08 12:05:37;;;;;;;6.85;4.43;;;10.70;48.50;;;;;;6123238;23;95367;-68
2022/03/08 12:08:29;;;;;;;5.35;4.10;;;10.80;49.00;;;;;;6125924;23;92366;-69
2022/03/08 12:11:16;;;;;;;6.07;4.63;;;11.00;49.00;;;;;;6125650;22;93497;-69
2022/03/08 12:14:00;;;;;;;4.55;3.83;;;11.10;49.80;;;;;;6125704;22;92847;-69
2022/03/08 12:16:28;;;;;;;6.93;3.85;;;11.10;49.70;;;;;;6124079;23;92499;-69
2022/03/08 12:18:58;;;;;;;6.18;3.85;;;11.00;48.60;;;;;;6126224;23;92359;-74
2022/03/08 12:21:25;;;;;;;4.35;3.65;;;11.20;49.60;;;;;;6124282;23;95921;-69
2022/03/08 12:24:07;;;;;;;5.75;3.75;;;11.20;47.90;;;;;;6124855;23;92861;-73
2022/03/08 12:26:50;;;;;;;4.38;3.97;;;11.30;48.60;;;;;;6126307;22;92403;-74
2022/03/08 12:29:53;;;;;;;4.97;4.15;;;11.40;47.50;;;;;;6124765;23;92457;-74
2022/03/08 12:32:27;;;;;;;5.10;4.60;;;11.40;47.40;;;;;;6124737;22;95584;-74
2022/03/08 12:34:57;;;;;;;4.20;3.75;;;11.50;48.40;;;;;;6125943;22;95190;-69
2022/03/08 12:37:58;;;;;;;4.50;4.10;;;11.50;48.00;;;;;;6125632;22;92409;-69
2022/03/08 12:40:30;;;;;;;6.82;4.25;;;11.50;47.90;;;;;;6123872;23;92398;-69
2022/03/08 12:43:09;;;;;;;5.78;5.20;;;11.50;48.50;;;;;;6125649;22;96710;-69
2022/03/08 12:45:46;;;;;;;3.63;3.33;;;11.50;49.60;;;;;;6123582;23;94297;-69
2022/03/08 12:48:21;;;;;;;5.35;4.25;;;11.50;48.00;;;;;;6100434;23;92428;-69
2022/03/08 12:50:59;;;;;;;8.98;5.32;;;11.60;48.60;;;;;;6124568;23;92543;-68
2022/03/08 12:53:30;;;;;;;5.00;4.47;;;11.70;48.20;;;;;;6123953;23;92493;-69